sensor_id;sensor_type;location;lat;lon;timestamp;temperature;humidity
11538;DHT22;50159;49.426;11.182;2022-12-07T00:01:36;2.60;99.90
11538;DHT22;50159;49.426;11.182;2022-12-07T00:04:10;2.60;99.90
11538;DHT22;50159;49.426;11.182;2022-12-07T00:06:41;2.60;99.90
11538;DHT22;50159;49.426;11.182;2022-12-07T00:09:14;2.60;99.90
11538;DHT22;50159;49.426;11.182;2022-12-07T00:11:44;2.60;99.90
11538;DHT22;50159;49.426;11.182;2022-12-07T00:14:14;2.60;99.90
11538;DHT22;50159;49.426;11.182;2022-12-07T00:16:43;2.60;99.90
11538;DHT22;50159;49.426;11.182;2022-12-07T00:19:12;2.60;99.90
11538;DHT22;50159;49.426;11.182;2022-12-07T00:21:40;2.70;99.90
11538;DHT22;50159;49.426;11.182;2022-12-07T00:24:07;2.60;99.90
11538;DHT22;50159;49.426;11.182;2022-12-07T00:26:37;2.60;99.90
11538;DHT22;50159;49.426;11.182;2022-12-07T00:29:09;2.70;99.90
11538;DHT22;50159;49.426;11.182;2022-12-07T00:31:41;2.60;99.90
11538;DHT22;50159;49.426;11.182;2022-12-07T00:34:12;2.60;99.90
11538;DHT22;50159;49.426;11.182;2022-12-07T00:36:41;2.60;99.90
11538;DHT22;50159;49.426;11.182;2022-12-07T00:39:08;2.60;99.90
11538;DHT22;50159;49.426;11.182;2022-12-07T00:41:35;2.60;99.90
11538;DHT22;50159;49.426;11.182;2022-12-07T00:44:02;2.60;99.90
11538;DHT22;50159;49.426;11.182;2022-12-07T00:46:29;2.60;99.90
11538;DHT22;50159;49.426;11.182;2022-12-07T00:48:56;2.60;99.90
11538;DHT22;50159;49.426;11.182;2022-12-07T00:51:24;2.60;99.90
11538;DHT22;50159;49.426;11.182;2022-12-07T00:53:52;2.60;99.90
11538;DHT22;50159;49.426;11.182;2022-12-07T00:56:24;2.60;99.90
11538;DHT22;50159;49.426;11.182;2022-12-07T00:59:00;2.60;99.90
11538;DHT22;50159;49.426;11.182;2022-12-07T01:01:33;2.60;99.90
11538;DHT22;50159;49.426;11.182;2022-12-07T01:04:02;2.60;99.90
11538;DHT22;50159;49.426;11.182;2022-12-07T01:06:30;2.60;99.90
11538;DHT22;50159;49.426;11.182;2022-12-07T01:08:58;2.60;99.90
11538;DHT22;50159;49.426;11.182;2022-12-07T01:11:27;2.60;99.90
11538;DHT22;50159;49.426;11.182;2022-12-07T01:13:57;2.60;99.90
11538;DHT22;50159;49.426;11.182;2022-12-07T01:16:26;2.60;99.90
11538;DHT22;50159;49.426;11.182;2022-12-07T01:18:56;2.60;99.90
11538;DHT22;50159;49.426;11.182;2022-12-07T01:21:33;2.60;99.90
11538;DHT22;50159;49.426;11.182;2022-12-07T01:24:04;2.60;99.90
11538;DHT22;50159;49.426;11.182;2022-12-07T01:26:32;2.60;99.90
11538;DHT22;50159;49.426;11.182;2022-12-07T01:28:59;2.60;99.90
11538;DHT22;50159;49.426;11.182;2022-12-07T01:31:27;2.60;99.90
11538;DHT22;50159;49.426;11.182;2022-12-07T01:33:57;2.50;99.90
11538;DHT22;50159;49.426;11.182;2022-12-07T01:36:30;2.60;99.90
11538;DHT22;50159;49.426;11.182;2022-12-07T01:39:03;2.60;99.90
11538;DHT22;50159;49.426;11.182;2022-12-07T01:41:34;2.60;99.90
11538;DHT22;50159;49.426;11.182;2022-12-07T01:44:27;2.60;99.90
11538;DHT22;50159;49.426;11.182;2022-12-07T01:47:01;2.60;99.90
11538;DHT22;50159;49.426;11.182;2022-12-07T01:49:48;2.50;99.90
11538;DHT22;50159;49.426;11.182;2022-12-07T01:52:31;2.50;99.90
11538;DHT22;50159;49.426;11.182;2022-12-07T01:55:06;2.50;99.90
11538;DHT22;50159;49.426;11.182;2022-12-07T01:57:38;2.50;99.90
11538;DHT22;50159;49.426;11.182;2022-12-07T02:00:09;2.50;99.90
11538;DHT22;50159;49.426;11.182;2022-12-07T02:02:47;2.50;99.90
11538;DHT22;50159;49.426;11.182;2022-12-07T02:05:18;2.50;99.90
11538;DHT22;50159;49.426;11.182;2022-12-07T02:07:47;2.50;99.90
11538;DHT22;50159;49.426;11.182;2022-12-07T02:10:27;2.50;99.90
11538;DHT22;50159;49.426;11.182;2022-12-07T02:13:02;2.50;99.90
11538;DHT22;50159;49.426;11.182;2022-12-07T02:15:45;2.50;99.90
11538;DHT22;50159;49.426;11.182;2022-12-07T02:21:47;2.50;99.90
11538;DHT22;50159;49.426;11.182;2022-12-07T02:30:13;2.50;99.90
11538;DHT22;50159;49.426;11.182;2022-12-07T02:32:44;2.40;99.90
11538;DHT22;50159;49.426;11.182;2022-12-07T02:35:21;2.50;99.90
11538;DHT22;50159;49.426;11.182;2022-12-07T02:43:46;2.50;99.90
11538;DHT22;50159;49.426;11.182;2022-12-07T02:46:21;2.40;99.90
11538;DHT22;50159;49.426;11.182;2022-12-07T02:48:53;2.40;99.90
11538;DHT22;50159;49.426;11.182;2022-12-07T02:51:27;2.40;99.90
11538;DHT22;50159;49.426;11.182;2022-12-07T02:53:56;2.40;99.90
11538;DHT22;50159;49.426;11.182;2022-12-07T02:59:25;2.40;99.90
11538;DHT22;50159;49.426;11.182;2022-12-07T03:10:57;2.40;99.90
11538;DHT22;50159;49.426;11.182;2022-12-07T03:16:28;2.40;99.90
11538;DHT22;50159;49.426;11.182;2022-12-07T03:19:04;2.30;99.90
11538;DHT22;50159;49.426;11.182;2022-12-07T03:21:39;2.30;99.90
11538;DHT22;50159;49.426;11.182;2022-12-07T03:24:21;2.30;99.90
11538;DHT22;50159;49.426;11.182;2022-12-07T03:26:55;2.30;99.90
11538;DHT22;50159;49.426;11.182;2022-12-07T03:29:40;2.20;99.90
11538;DHT22;50159;49.426;11.182;2022-12-07T03:35:25;2.10;99.90
11538;DHT22;50159;49.426;11.182;2022-12-07T03:38:00;2.10;99.90
11538;DHT22;50159;49.426;11.182;2022-12-07T03:43:36;2.00;99.90
11538;DHT22;50159;49.426;11.182;2022-12-07T03:46:11;2.00;99.90
11538;DHT22;50159;49.426;11.182;2022-12-07T03:49:09;2.00;99.90
11538;DHT22;50159;49.426;11.182;2022-12-07T03:52:18;2.00;99.90
11538;DHT22;50159;49.426;11.182;2022-12-07T03:55:31;2.00;99.90
11538;DHT22;50159;49.426;11.182;2022-12-07T03:58:06;2.00;99.90
11538;DHT22;50159;49.426;11.182;2022-12-07T04:00:37;2.00;99.90
11538;DHT22;50159;49.426;11.182;2022-12-07T04:03:04;2.00;99.90
11538;DHT22;50159;49.426;11.182;2022-12-07T04:05:31;1.90;99.90
11538;DHT22;50159;49.426;11.182;2022-12-07T04:07:58;1.80;99.90
11538;DHT22;50159;49.426;11.182;2022-12-07T04:10:25;1.80;99.90
11538;DHT22;50159;49.426;11.182;2022-12-07T04:12:52;1.70;99.90
11538;DHT22;50159;49.426;11.182;2022-12-07T04:15:18;1.60;99.90
11538;DHT22;50159;49.426;11.182;2022-12-07T04:17:45;1.50;99.90
11538;DHT22;50159;49.426;11.182;2022-12-07T04:20:12;1.40;99.90
11538;DHT22;50159;49.426;11.182;2022-12-07T04:22:39;1.40;99.90
11538;DHT22;50159;49.426;11.182;2022-12-07T04:25:06;1.30;99.90
11538;DHT22;50159;49.426;11.182;2022-12-07T04:27:33;1.20;99.90
11538;DHT22;50159;49.426;11.182;2022-12-07T04:30:00;1.20;99.90
11538;DHT22;50159;49.426;11.182;2022-12-07T04:32:27;1.10;99.90
11538;DHT22;50159;49.426;11.182;2022-12-07T04:34:54;1.00;99.90
11538;DHT22;50159;49.426;11.182;2022-12-07T04:37:22;0.90;99.90
11538;DHT22;50159;49.426;11.182;2022-12-07T04:39:49;0.90;99.90
11538;DHT22;50159;49.426;11.182;2022-12-07T04:42:16;0.80;99.90
11538;DHT22;50159;49.426;11.182;2022-12-07T04:44:43;0.80;99.90
11538;DHT22;50159;49.426;11.182;2022-12-07T04:47:11;0.80;99.90
11538;DHT22;50159;49.426;11.182;2022-12-07T04:49:37;0.80;99.90
11538;DHT22;50159;49.426;11.182;2022-12-07T04:52:04;0.80;99.90
11538;DHT22;50159;49.426;11.182;2022-12-07T04:54:31;0.70;99.90
11538;DHT22;50159;49.426;11.182;2022-12-07T04:56:58;0.70;99.90
11538;DHT22;50159;49.426;11.182;2022-12-07T04:59:25;0.80;99.90
11538;DHT22;50159;49.426;11.182;2022-12-07T05:01:52;0.80;99.90
11538;DHT22;50159;49.426;11.182;2022-12-07T05:04:18;0.80;99.90
11538;DHT22;50159;49.426;11.182;2022-12-07T05:06:45;0.80;99.90
11538;DHT22;50159;49.426;11.182;2022-12-07T05:09:12;0.80;99.90
11538;DHT22;50159;49.426;11.182;2022-12-07T05:11:39;0.80;99.90
11538;DHT22;50159;49.426;11.182;2022-12-07T05:14:13;0.80;99.90
11538;DHT22;50159;49.426;11.182;2022-12-07T05:16:46;0.90;99.90
11538;DHT22;50159;49.426;11.182;2022-12-07T05:19:17;0.90;99.90
11538;DHT22;50159;49.426;11.182;2022-12-07T05:21:45;0.90;99.90
11538;DHT22;50159;49.426;11.182;2022-12-07T05:24:13;1.00;99.90
11538;DHT22;50159;49.426;11.182;2022-12-07T05:26:42;1.00;99.90
11538;DHT22;50159;49.426;11.182;2022-12-07T05:29:15;1.00;99.90
11538;DHT22;50159;49.426;11.182;2022-12-07T05:31:43;1.00;99.90
11538;DHT22;50159;49.426;11.182;2022-12-07T05:34:10;1.00;99.90
11538;DHT22;50159;49.426;11.182;2022-12-07T05:36:37;1.10;99.90
11538;DHT22;50159;49.426;11.182;2022-12-07T05:39:04;1.10;99.90
11538;DHT22;50159;49.426;11.182;2022-12-07T05:41:31;1.10;99.90
11538;DHT22;50159;49.426;11.182;2022-12-07T05:44:16;1.10;99.90
11538;DHT22;50159;49.426;11.182;2022-12-07T05:46:43;1.10;99.90
11538;DHT22;50159;49.426;11.182;2022-12-07T05:49:10;1.10;99.90
11538;DHT22;50159;49.426;11.182;2022-12-07T05:51:37;1.10;99.90
11538;DHT22;50159;49.426;11.182;2022-12-07T05:54:04;1.20;99.90
11538;DHT22;50159;49.426;11.182;2022-12-07T05:56:30;1.20;99.90
11538;DHT22;50159;49.426;11.182;2022-12-07T05:58:57;1.10;99.90
11538;DHT22;50159;49.426;11.182;2022-12-07T06:01:42;1.20;99.90
11538;DHT22;50159;49.426;11.182;2022-12-07T06:04:09;1.20;99.90
11538;DHT22;50159;49.426;11.182;2022-12-07T06:06:36;1.20;99.90
11538;DHT22;50159;49.426;11.182;2022-12-07T06:09:03;1.20;99.90
11538;DHT22;50159;49.426;11.182;2022-12-07T06:11:30;1.30;99.90
11538;DHT22;50159;49.426;11.182;2022-12-07T06:14:15;1.30;99.90
11538;DHT22;50159;49.426;11.182;2022-12-07T06:16:42;1.30;99.90
11538;DHT22;50159;49.426;11.182;2022-12-07T06:19:14;1.30;99.90
11538;DHT22;50159;49.426;11.182;2022-12-07T06:21:41;1.30;99.90
11538;DHT22;50159;49.426;11.182;2022-12-07T06:24:11;1.30;99.90
11538;DHT22;50159;49.426;11.182;2022-12-07T06:26:39;1.40;99.90
11538;DHT22;50159;49.426;11.182;2022-12-07T06:29:07;1.40;99.90
11538;DHT22;50159;49.426;11.182;2022-12-07T06:31:35;1.40;99.90
11538;DHT22;50159;49.426;11.182;2022-12-07T06:34:05;1.40;99.90
11538;DHT22;50159;49.426;11.182;2022-12-07T06:36:35;1.40;99.90
11538;DHT22;50159;49.426;11.182;2022-12-07T06:39:03;1.30;99.90
11538;DHT22;50159;49.426;11.182;2022-12-07T06:41:31;1.30;99.90
11538;DHT22;50159;49.426;11.182;2022-12-07T06:43:58;1.40;99.90
11538;DHT22;50159;49.426;11.182;2022-12-07T06:46:25;1.40;99.90
11538;DHT22;50159;49.426;11.182;2022-12-07T06:48:52;1.40;99.90
11538;DHT22;50159;49.426;11.182;2022-12-07T06:51:19;1.40;99.90
11538;DHT22;50159;49.426;11.182;2022-12-07T06:53:46;1.50;99.90
11538;DHT22;50159;49.426;11.182;2022-12-07T06:56:12;1.40;99.90
11538;DHT22;50159;49.426;11.182;2022-12-07T06:58:40;1.40;99.90
11538;DHT22;50159;49.426;11.182;2022-12-07T07:01:11;1.40;99.90
11538;DHT22;50159;49.426;11.182;2022-12-07T07:03:40;1.40;99.90
11538;DHT22;50159;49.426;11.182;2022-12-07T07:06:08;1.40;99.90
11538;DHT22;50159;49.426;11.182;2022-12-07T07:08:36;1.40;99.90
11538;DHT22;50159;49.426;11.182;2022-12-07T07:11:04;1.50;99.90
11538;DHT22;50159;49.426;11.182;2022-12-07T07:13:32;1.50;99.90
11538;DHT22;50159;49.426;11.182;2022-12-07T07:15:59;1.50;99.90
11538;DHT22;50159;49.426;11.182;2022-12-07T07:18:27;1.50;99.90
11538;DHT22;50159;49.426;11.182;2022-12-07T07:20:54;1.50;99.90
11538;DHT22;50159;49.426;11.182;2022-12-07T07:23:22;1.50;99.90
11538;DHT22;50159;49.426;11.182;2022-12-07T07:25:50;1.50;99.90
11538;DHT22;50159;49.426;11.182;2022-12-07T07:28:16;1.50;99.90
11538;DHT22;50159;49.426;11.182;2022-12-07T07:30:44;1.50;99.90
11538;DHT22;50159;49.426;11.182;2022-12-07T07:33:11;1.50;99.90
11538;DHT22;50159;49.426;11.182;2022-12-07T07:35:39;1.50;99.90
11538;DHT22;50159;49.426;11.182;2022-12-07T07:38:06;1.50;99.90
11538;DHT22;50159;49.426;11.182;2022-12-07T07:40:34;1.60;99.90
11538;DHT22;50159;49.426;11.182;2022-12-07T07:43:01;1.60;99.90
11538;DHT22;50159;49.426;11.182;2022-12-07T07:45:28;1.60;99.90
11538;DHT22;50159;49.426;11.182;2022-12-07T07:47:55;1.60;99.90
11538;DHT22;50159;49.426;11.182;2022-12-07T07:50:22;1.60;99.90
11538;DHT22;50159;49.426;11.182;2022-12-07T07:52:49;1.60;99.90
11538;DHT22;50159;49.426;11.182;2022-12-07T07:55:16;1.60;99.90
11538;DHT22;50159;49.426;11.182;2022-12-07T07:57:43;1.60;99.90
11538;DHT22;50159;49.426;11.182;2022-12-07T08:00:15;1.60;99.90
11538;DHT22;50159;49.426;11.182;2022-12-07T08:02:43;1.70;99.90
11538;DHT22;50159;49.426;11.182;2022-12-07T08:05:11;1.80;99.90
11538;DHT22;50159;49.426;11.182;2022-12-07T08:07:39;1.80;99.90
11538;DHT22;50159;49.426;11.182;2022-12-07T08:10:07;1.80;99.90
11538;DHT22;50159;49.426;11.182;2022-12-07T08:12:38;1.80;99.90
11538;DHT22;50159;49.426;11.182;2022-12-07T08:15:29;1.70;99.90
11538;DHT22;50159;49.426;11.182;2022-12-07T08:17:57;1.70;99.90
11538;DHT22;50159;49.426;11.182;2022-12-07T08:20:25;1.70;99.90
11538;DHT22;50159;49.426;11.182;2022-12-07T08:22:52;1.80;99.90
11538;DHT22;50159;49.426;11.182;2022-12-07T08:25:19;1.80;99.90
11538;DHT22;50159;49.426;11.182;2022-12-07T08:27:47;1.80;99.90
11538;DHT22;50159;49.426;11.182;2022-12-07T08:30:15;1.80;99.90
11538;DHT22;50159;49.426;11.182;2022-12-07T08:32:43;1.80;99.90
11538;DHT22;50159;49.426;11.182;2022-12-07T08:35:11;1.90;99.90
11538;DHT22;50159;49.426;11.182;2022-12-07T08:37:39;1.90;99.90
11538;DHT22;50159;49.426;11.182;2022-12-07T08:40:07;1.90;99.90
11538;DHT22;50159;49.426;11.182;2022-12-07T08:42:35;2.00;99.90
11538;DHT22;50159;49.426;11.182;2022-12-07T08:45:09;2.00;99.90
11538;DHT22;50159;49.426;11.182;2022-12-07T08:47:53;2.00;99.90
11538;DHT22;50159;49.426;11.182;2022-12-07T08:50:23;2.10;99.90
11538;DHT22;50159;49.426;11.182;2022-12-07T08:52:55;2.10;99.90
11538;DHT22;50159;49.426;11.182;2022-12-07T08:55:25;2.20;99.90
11538;DHT22;50159;49.426;11.182;2022-12-07T08:57:53;2.20;99.90
11538;DHT22;50159;49.426;11.182;2022-12-07T09:00:21;2.30;99.90
11538;DHT22;50159;49.426;11.182;2022-12-07T09:02:48;2.40;99.90
11538;DHT22;50159;49.426;11.182;2022-12-07T09:05:14;2.40;99.90
11538;DHT22;50159;49.426;11.182;2022-12-07T09:07:49;2.40;99.90
11538;DHT22;50159;49.426;11.182;2022-12-07T09:10:19;2.40;99.90
11538;DHT22;50159;49.426;11.182;2022-12-07T09:12:45;2.50;99.90
11538;DHT22;50159;49.426;11.182;2022-12-07T09:15:12;2.50;99.90
11538;DHT22;50159;49.426;11.182;2022-12-07T09:17:39;2.50;99.90
11538;DHT22;50159;49.426;11.182;2022-12-07T09:20:06;2.50;99.90
11538;DHT22;50159;49.426;11.182;2022-12-07T09:22:33;2.50;99.90
11538;DHT22;50159;49.426;11.182;2022-12-07T09:25:01;2.50;99.90
11538;DHT22;50159;49.426;11.182;2022-12-07T09:27:30;2.50;99.90
11538;DHT22;50159;49.426;11.182;2022-12-07T09:29:58;2.50;99.90
11538;DHT22;50159;49.426;11.182;2022-12-07T09:32:25;2.60;99.90
11538;DHT22;50159;49.426;11.182;2022-12-07T09:34:51;2.60;99.90
11538;DHT22;50159;49.426;11.182;2022-12-07T09:37:18;2.60;99.90
11538;DHT22;50159;49.426;11.182;2022-12-07T09:39:45;2.60;99.90
11538;DHT22;50159;49.426;11.182;2022-12-07T09:42:34;2.60;99.90
11538;DHT22;50159;49.426;11.182;2022-12-07T09:45:06;2.60;99.90
11538;DHT22;50159;49.426;11.182;2022-12-07T09:47:38;2.60;99.90
11538;DHT22;50159;49.426;11.182;2022-12-07T09:50:11;2.60;99.90
11538;DHT22;50159;49.426;11.182;2022-12-07T09:52:41;2.60;99.90
11538;DHT22;50159;49.426;11.182;2022-12-07T09:55:13;2.60;99.90
11538;DHT22;50159;49.426;11.182;2022-12-07T09:57:42;2.60;99.90
11538;DHT22;50159;49.426;11.182;2022-12-07T10:00:15;2.70;99.90
11538;DHT22;50159;49.426;11.182;2022-12-07T10:02:56;2.70;99.90
11538;DHT22;50159;49.426;11.182;2022-12-07T10:05:51;2.70;99.90
11538;DHT22;50159;49.426;11.182;2022-12-07T10:08:18;2.70;99.90
11538;DHT22;50159;49.426;11.182;2022-12-07T10:10:48;2.70;99.90
11538;DHT22;50159;49.426;11.182;2022-12-07T10:13:48;2.70;99.90
11538;DHT22;50159;49.426;11.182;2022-12-07T10:16:38;2.70;99.90
11538;DHT22;50159;49.426;11.182;2022-12-07T10:19:20;2.70;99.90
11538;DHT22;50159;49.426;11.182;2022-12-07T10:22:05;2.70;99.90
11538;DHT22;50159;49.426;11.182;2022-12-07T10:24:38;2.70;99.90
11538;DHT22;50159;49.426;11.182;2022-12-07T10:27:22;2.70;99.90
11538;DHT22;50159;49.426;11.182;2022-12-07T10:29:57;2.70;99.90
11538;DHT22;50159;49.426;11.182;2022-12-07T10:32:32;2.80;99.90
11538;DHT22;50159;49.426;11.182;2022-12-07T10:35:29;2.80;99.90
11538;DHT22;50159;49.426;11.182;2022-12-07T10:37:58;2.80;99.90
11538;DHT22;50159;49.426;11.182;2022-12-07T10:40:27;2.80;99.90
11538;DHT22;50159;49.426;11.182;2022-12-07T10:46:10;2.80;99.90
11538;DHT22;50159;49.426;11.182;2022-12-07T10:51:53;2.90;99.90
11538;DHT22;50159;49.426;11.182;2022-12-07T11:00:53;3.00;99.90
11538;DHT22;50159;49.426;11.182;2022-12-07T11:15:28;3.10;99.90
11538;DHT22;50159;49.426;11.182;2022-12-07T11:18:11;3.10;99.90
11538;DHT22;50159;49.426;11.182;2022-12-07T11:21:22;3.10;99.90
11538;DHT22;50159;49.426;11.182;2022-12-07T11:24:04;3.10;99.90
11538;DHT22;50159;49.426;11.182;2022-12-07T11:33:15;3.10;99.90
11538;DHT22;50159;49.426;11.182;2022-12-07T11:36:04;3.20;99.90
11538;DHT22;50159;49.426;11.182;2022-12-07T11:41:32;3.20;99.90
11538;DHT22;50159;49.426;11.182;2022-12-07T11:44:11;3.20;99.90
11538;DHT22;50159;49.426;11.182;2022-12-07T11:47:05;3.20;99.90
11538;DHT22;50159;49.426;11.182;2022-12-07T11:52:41;3.30;99.90
11538;DHT22;50159;49.426;11.182;2022-12-07T11:55:27;3.20;99.90
11538;DHT22;50159;49.426;11.182;2022-12-07T11:58:34;3.30;99.90
11538;DHT22;50159;49.426;11.182;2022-12-07T12:06:40;3.30;99.90
11538;DHT22;50159;49.426;11.182;2022-12-07T12:09:25;3.30;99.90
11538;DHT22;50159;49.426;11.182;2022-12-07T12:18:21;3.30;99.90
11538;DHT22;50159;49.426;11.182;2022-12-07T12:20:57;3.20;99.90
11538;DHT22;50159;49.426;11.182;2022-12-07T12:26:20;3.30;99.90
11538;DHT22;50159;49.426;11.182;2022-12-07T12:28:52;3.30;99.90
11538;DHT22;50159;49.426;11.182;2022-12-07T12:33:50;3.20;99.90
11538;DHT22;50159;49.426;11.182;2022-12-07T12:39:10;3.30;99.90
11538;DHT22;50159;49.426;11.182;2022-12-07T12:47:04;3.30;99.90
11538;DHT22;50159;49.426;11.182;2022-12-07T12:50:21;3.30;99.90
11538;DHT22;50159;49.426;11.182;2022-12-07T12:52:52;3.30;99.90
11538;DHT22;50159;49.426;11.182;2022-12-07T12:59:18;3.30;99.90
11538;DHT22;50159;49.426;11.182;2022-12-07T13:01:46;3.30;99.90
11538;DHT22;50159;49.426;11.182;2022-12-07T13:07:01;3.30;99.90
11538;DHT22;50159;49.426;11.182;2022-12-07T13:09:33;3.30;99.90
11538;DHT22;50159;49.426;11.182;2022-12-07T13:12:05;3.30;99.90
11538;DHT22;50159;49.426;11.182;2022-12-07T13:14:54;3.30;99.90
11538;DHT22;50159;49.426;11.182;2022-12-07T13:19:59;3.30;99.90
11538;DHT22;50159;49.426;11.182;2022-12-07T13:25:05;3.30;99.90
11538;DHT22;50159;49.426;11.182;2022-12-07T13:28:07;3.30;99.90
11538;DHT22;50159;49.426;11.182;2022-12-07T13:30:53;3.30;99.90
11538;DHT22;50159;49.426;11.182;2022-12-07T13:33:29;3.30;99.90
11538;DHT22;50159;49.426;11.182;2022-12-07T13:35:57;3.30;99.90
11538;DHT22;50159;49.426;11.182;2022-12-07T13:38:32;3.30;99.90
11538;DHT22;50159;49.426;11.182;2022-12-07T13:41:20;3.30;99.90
11538;DHT22;50159;49.426;11.182;2022-12-07T13:43:51;3.30;99.90
11538;DHT22;50159;49.426;11.182;2022-12-07T13:46:48;3.30;99.90
11538;DHT22;50159;49.426;11.182;2022-12-07T13:49:25;3.30;99.90
11538;DHT22;50159;49.426;11.182;2022-12-07T13:57:33;3.20;99.90
11538;DHT22;50159;49.426;11.182;2022-12-07T14:00:13;3.30;99.90
11538;DHT22;50159;49.426;11.182;2022-12-07T14:05:27;3.30;99.90
11538;DHT22;50159;49.426;11.182;2022-12-07T14:08:01;3.20;99.90
11538;DHT22;50159;49.426;11.182;2022-12-07T14:13:37;3.30;99.90
11538;DHT22;50159;49.426;11.182;2022-12-07T14:16:33;3.30;99.90
11538;DHT22;50159;49.426;11.182;2022-12-07T14:19:04;3.20;99.90
11538;DHT22;50159;49.426;11.182;2022-12-07T14:22:06;3.20;99.90
11538;DHT22;50159;49.426;11.182;2022-12-07T14:24:44;3.20;99.90
11538;DHT22;50159;49.426;11.182;2022-12-07T14:27:22;3.20;99.90
11538;DHT22;50159;49.426;11.182;2022-12-07T14:29:52;3.20;99.90
11538;DHT22;50159;49.426;11.182;2022-12-07T14:35:08;3.20;99.90
11538;DHT22;50159;49.426;11.182;2022-12-07T14:37:37;3.20;99.90
11538;DHT22;50159;49.426;11.182;2022-12-07T14:40:06;3.20;99.90
11538;DHT22;50159;49.426;11.182;2022-12-07T14:42:34;3.20;99.90
11538;DHT22;50159;49.426;11.182;2022-12-07T14:45:01;3.20;99.90
11538;DHT22;50159;49.426;11.182;2022-12-07T14:47:29;3.20;99.90
11538;DHT22;50159;49.426;11.182;2022-12-07T14:50:18;3.20;99.90
11538;DHT22;50159;49.426;11.182;2022-12-07T14:52:51;3.20;99.90
11538;DHT22;50159;49.426;11.182;2022-12-07T14:55:41;3.20;99.90
11538;DHT22;50159;49.426;11.182;2022-12-07T14:58:14;3.20;99.90
11538;DHT22;50159;49.426;11.182;2022-12-07T15:00:42;3.20;99.90
11538;DHT22;50159;49.426;11.182;2022-12-07T15:03:09;3.20;99.90
11538;DHT22;50159;49.426;11.182;2022-12-07T15:05:37;3.10;99.90
11538;DHT22;50159;49.426;11.182;2022-12-07T15:08:04;3.10;99.90
11538;DHT22;50159;49.426;11.182;2022-12-07T15:10:33;3.20;99.90
11538;DHT22;50159;49.426;11.182;2022-12-07T15:13:02;3.10;99.90
11538;DHT22;50159;49.426;11.182;2022-12-07T15:15:49;3.20;99.90
11538;DHT22;50159;49.426;11.182;2022-12-07T15:18:18;3.20;99.90
11538;DHT22;50159;49.426;11.182;2022-12-07T15:20:46;3.20;99.90
11538;DHT22;50159;49.426;11.182;2022-12-07T15:23:13;3.20;99.90
11538;DHT22;50159;49.426;11.182;2022-12-07T15:25:44;3.20;99.90
11538;DHT22;50159;49.426;11.182;2022-12-07T15:28:12;3.10;99.90
11538;DHT22;50159;49.426;11.182;2022-12-07T15:30:40;3.10;99.90
11538;DHT22;50159;49.426;11.182;2022-12-07T15:33:13;3.10;99.90
11538;DHT22;50159;49.426;11.182;2022-12-07T15:35:41;3.00;99.90
11538;DHT22;50159;49.426;11.182;2022-12-07T15:38:12;3.00;99.90
11538;DHT22;50159;49.426;11.182;2022-12-07T15:40:39;2.90;99.90
11538;DHT22;50159;49.426;11.182;2022-12-07T15:43:08;2.90;99.90
11538;DHT22;50159;49.426;11.182;2022-12-07T15:45:56;2.90;99.90
11538;DHT22;50159;49.426;11.182;2022-12-07T15:48:23;2.90;99.90
11538;DHT22;50159;49.426;11.182;2022-12-07T15:51:04;2.90;99.90
11538;DHT22;50159;49.426;11.182;2022-12-07T15:53:33;2.90;99.90
11538;DHT22;50159;49.426;11.182;2022-12-07T15:56:00;3.00;99.90
11538;DHT22;50159;49.426;11.182;2022-12-07T15:58:27;2.90;99.90
11538;DHT22;50159;49.426;11.182;2022-12-07T16:00:54;2.90;99.90
11538;DHT22;50159;49.426;11.182;2022-12-07T16:03:21;3.00;99.90
11538;DHT22;50159;49.426;11.182;2022-12-07T16:05:51;2.90;99.90
11538;DHT22;50159;49.426;11.182;2022-12-07T16:08:19;2.90;99.90
11538;DHT22;50159;49.426;11.182;2022-12-07T16:10:46;2.90;99.90
11538;DHT22;50159;49.426;11.182;2022-12-07T16:13:13;2.90;99.90
11538;DHT22;50159;49.426;11.182;2022-12-07T16:15:40;2.90;99.90
11538;DHT22;50159;49.426;11.182;2022-12-07T16:18:08;2.90;99.90
11538;DHT22;50159;49.426;11.182;2022-12-07T16:20:35;2.90;99.90
11538;DHT22;50159;49.426;11.182;2022-12-07T16:23:02;2.90;99.90
11538;DHT22;50159;49.426;11.182;2022-12-07T16:25:28;2.90;99.90
11538;DHT22;50159;49.426;11.182;2022-12-07T16:27:55;2.90;99.90
11538;DHT22;50159;49.426;11.182;2022-12-07T16:30:22;2.90;99.90
11538;DHT22;50159;49.426;11.182;2022-12-07T16:32:49;2.90;99.90
11538;DHT22;50159;49.426;11.182;2022-12-07T16:35:15;2.90;99.90
11538;DHT22;50159;49.426;11.182;2022-12-07T16:37:43;3.00;99.90
11538;DHT22;50159;49.426;11.182;2022-12-07T16:40:10;3.00;99.90
11538;DHT22;50159;49.426;11.182;2022-12-07T16:42:37;2.90;99.90
11538;DHT22;50159;49.426;11.182;2022-12-07T16:45:04;2.90;99.90
11538;DHT22;50159;49.426;11.182;2022-12-07T16:47:32;2.90;99.90
11538;DHT22;50159;49.426;11.182;2022-12-07T16:49:58;2.90;99.90
11538;DHT22;50159;49.426;11.182;2022-12-07T16:52:25;2.90;99.90
11538;DHT22;50159;49.426;11.182;2022-12-07T16:54:52;2.90;99.90
11538;DHT22;50159;49.426;11.182;2022-12-07T16:57:19;2.90;99.90
11538;DHT22;50159;49.426;11.182;2022-12-07T16:59:50;2.90;99.90
11538;DHT22;50159;49.426;11.182;2022-12-07T17:02:18;2.90;99.90
11538;DHT22;50159;49.426;11.182;2022-12-07T17:04:46;2.90;99.90
11538;DHT22;50159;49.426;11.182;2022-12-07T17:07:12;2.90;99.90
11538;DHT22;50159;49.426;11.182;2022-12-07T17:09:39;2.80;99.90
11538;DHT22;50159;49.426;11.182;2022-12-07T17:12:06;2.90;99.90
11538;DHT22;50159;49.426;11.182;2022-12-07T17:14:33;2.90;99.90
11538;DHT22;50159;49.426;11.182;2022-12-07T17:17:18;2.90;99.90
11538;DHT22;50159;49.426;11.182;2022-12-07T17:19:45;2.90;99.90
11538;DHT22;50159;49.426;11.182;2022-12-07T17:22:12;2.90;99.90
11538;DHT22;50159;49.426;11.182;2022-12-07T17:24:39;2.90;99.90
11538;DHT22;50159;49.426;11.182;2022-12-07T17:27:06;2.90;99.90
11538;DHT22;50159;49.426;11.182;2022-12-07T17:29:33;2.80;99.90
11538;DHT22;50159;49.426;11.182;2022-12-07T17:31:59;2.80;99.90
11538;DHT22;50159;49.426;11.182;2022-12-07T17:34:26;2.80;99.90
11538;DHT22;50159;49.426;11.182;2022-12-07T17:36:53;2.70;99.90
11538;DHT22;50159;49.426;11.182;2022-12-07T17:39:21;2.70;99.90
11538;DHT22;50159;49.426;11.182;2022-12-07T17:41:48;2.70;99.90
11538;DHT22;50159;49.426;11.182;2022-12-07T17:44:34;2.70;99.90
11538;DHT22;50159;49.426;11.182;2022-12-07T17:47:00;2.60;99.90
11538;DHT22;50159;49.426;11.182;2022-12-07T17:49:28;2.60;99.90
11538;DHT22;50159;49.426;11.182;2022-12-07T17:51:55;2.60;99.90
11538;DHT22;50159;49.426;11.182;2022-12-07T17:54:40;2.60;99.90
11538;DHT22;50159;49.426;11.182;2022-12-07T17:57:07;2.60;99.90
11538;DHT22;50159;49.426;11.182;2022-12-07T17:59:34;2.60;99.90
11538;DHT22;50159;49.426;11.182;2022-12-07T18:02:01;2.60;99.90
11538;DHT22;50159;49.426;11.182;2022-12-07T18:04:28;2.60;99.90